Ronkonkoma, New York
Current Conditions -  °F | °C
As of 8:56 PM on Wednesday 17 Dec 2014 (Local Time) from KISP Reporting Station
Few Clouds Few Clouds  
Wind Chill: 38°   Ceiling: Unl
Heat Index: 44°   Visibility: 10mi
Dew Point: 31°   Wind: 12mph
Humidity: 60%   Direction: 300°WNW
Pressure: 29.85"   Gusts: 23mph
Location:  40.81°N, 73.1°W
Report Text: KISP 180156Z 30010G20KT 10SM FEW045 FEW070 07/M01 A2985 RMK AO2 SLP107 T00671006
Loading
Personal Weather Stations






























Interactive Weather Map New forecast layout! Learn more

10-Day Weather Forecast

Advertisements
Track Severe Weather on mobile